Time;durP1;ratioP1;P1;durP2;ratioP2;P2;SDS_P1;SDS_P2;PMS_P1;PMS_P2;Temp;Humidity;BMP_temperature;BMP_pressure;BME280_temperature;BME280_humidity;BME280_pressure;Samples;Min_cycle;Max_cycle;Signal;HPM_P1;HPM_P2
2023/08/20 00:00:00;;;;;;;;;;;;;;;16.95;100.00;102038.81;5007536;28;19928;-75
2023/08/20 00:02:25;;;;;;;;;;;;;;;16.85;100.00;102038.75;5009856;28;19928;-75
2023/08/20 00:04:50;;;;;;;;;;;;;;;16.86;100.00;102035.03;5009824;28;19932;-74
2023/08/20 00:07:18;;;;;;;;;;;;;;;16.88;100.00;102037.59;5008561;28;19936;-74
2023/08/20 00:09:43;;;;;;;;;;;;;;;16.88;100.00;102040.31;5007379;28;19921;-75
2023/08/20 00:12:08;;;;;;;;;;;;;;;16.91;100.00;102042.78;5009732;28;19928;-74
2023/08/20 00:14:54;;;;;;;;;;;;;;;16.89;100.00;102045.63;5011038;28;20593;-75
2023/08/20 00:17:19;;;;;;;;;;;;;;;16.89;100.00;102042.91;4991379;28;20142;-75
2023/08/20 00:19:44;;;;;;;;;;;;;;;16.90;100.00;102039.22;5009431;28;20099;-75
2023/08/20 00:22:10;;;;;;;;;;;;;;;16.87;100.00;102036.75;5010659;28;20224;-75
2023/08/20 00:24:35;;;;;;;;;;;;;;;16.74;100.00;102039.66;5006566;28;19967;-75
2023/08/20 00:27:00;;;;;;;;;;;;;;;16.66;100.00;102044.88;4994372;28;19929;-74
2023/08/20 00:29:26;;;;;;;;;;;;;;;16.58;100.00;102048.25;5011065;28;20316;-75
2023/08/20 00:31:51;;;;;;;;;;;;;;;16.55;100.00;102045.78;5011100;28;20265;-75
2023/08/20 00:34:16;;;;;;;;;;;;;;;16.54;100.00;102043.22;5019008;28;20687;-74
2023/08/20 00:36:41;;;;;;;;;;;;;;;16.51;100.00;102044.31;5012822;28;20399;-75
2023/08/20 00:39:07;;;;;;;;;;;;;;;16.44;100.00;102046.69;5012730;28;20420;-74
2023/08/20 00:41:32;;;;;;;;;;;;;;;16.40;100.00;102045.22;5010739;28;20387;-75
2023/08/20 00:43:57;;;;;;;;;;;;;;;16.42;100.00;102045.97;5010478;28;20362;-75
2023/08/20 00:46:23;;;;;;;;;;;;;;;16.47;100.00;102053.69;5014136;28;20654;-74
2023/08/20 00:48:48;;;;;;;;;;;;;;;16.51;100.00;102055.16;4989870;28;20394;-74
2023/08/20 00:51:13;;;;;;;;;;;;;;;16.52;100.00;102056.03;5003957;28;19921;-75
2023/08/20 00:53:38;;;;;;;;;;;;;;;16.51;100.00;102055.16;5005037;28;19960;-75
2023/08/20 00:56:03;;;;;;;;;;;;;;;16.48;100.00;102059.00;5008116;28;19947;-74
2023/08/20 00:58:29;;;;;;;;;;;;;;;16.37;100.00;102056.31;5009706;28;19916;-74
2023/08/20 01:00:54;;;;;;;;;;;;;;;16.32;100.00;102055.84;5015027;28;20256;-75
2023/08/20 01:03:19;;;;;;;;;;;;;;;16.24;100.00;102056.47;5003468;28;20315;-75
2023/08/20 01:05:46;;;;;;;;;;;;;;;16.23;100.00;102049.34;5016487;28;20332;-74
2023/08/20 01:08:24;;;;;;;;;;;;;;;16.24;100.00;102051.06;5014685;28;19929;-74
2023/08/20 01:10:54;;;;;;;;;;;;;;;16.27;100.00;102060.81;5016017;28;19963;-74
2023/08/20 01:13:19;;;;;;;;;;;;;;;16.29;100.00;102070.50;5012349;28;19944;-75
2023/08/20 01:15:45;;;;;;;;;;;;;;;16.24;100.00;102071.88;5014501;28;20328;-75
2023/08/20 01:18:10;;;;;;;;;;;;;;;16.22;100.00;102087.41;5022150;28;20395;-74
2023/08/20 01:20:46;;;;;;;;;;;;;;;16.14;100.00;102080.75;5014140;28;20427;-74
2023/08/20 01:23:29;;;;;;;;;;;;;;;16.14;100.00;102088.03;5004044;28;20441;-75
2023/08/20 01:26:02;;;;;;;;;;;;;;;16.11;100.00;102096.41;5011194;28;19925;-75
2023/08/20 01:28:28;;;;;;;;;;;;;;;16.19;100.00;102099.34;4996137;28;20018;-74
2023/08/20 01:30:57;;;;;;;;;;;;;;;16.28;100.00;102104.00;5013331;28;19983;-75
2023/08/20 01:33:24;;;;;;;;;;;;;;;16.39;100.00;102103.13;5005883;28;20513;-75
2023/08/20 01:35:49;;;;;;;;;;;;;;;16.49;100.00;102104.09;5013904;28;20359;-75
2023/08/20 01:38:14;;;;;;;;;;;;;;;16.59;100.00;102114.16;5011804;28;19921;-75
2023/08/20 01:40:39;;;;;;;;;;;;;;;16.70;100.00;102111.41;5012161;28;19927;-75
2023/08/20 01:43:05;;;;;;;;;;;;;;;16.82;100.00;102109.53;5010124;28;20353;-74
2023/08/20 01:45:30;;;;;;;;;;;;;;;16.92;100.00;102110.47;5021749;28;20378;-74
2023/08/20 01:47:55;;;;;;;;;;;;;;;17.01;100.00;102110.69;5009219;28;20318;-75
2023/08/20 01:50:20;;;;;;;;;;;;;;;16.93;100.00;102117.63;5007030;28;20516;-75
2023/08/20 01:52:45;;;;;;;;;;;;;;;16.97;100.00;102114.66;5014198;28;20481;-75
2023/08/20 01:55:11;;;;;;;;;;;;;;;17.02;100.00;102112.41;5026355;22;20442;-75
2023/08/20 01:57:36;;;;;;;;;;;;;;;17.11;100.00;102108.03;5012073;28;20284;-75
2023/08/20 02:00:03;;;;;;;;;;;;;;;17.22;100.00;102105.28;4997352;28;19956;-74
2023/08/20 02:02:29;;;;;;;;;;;;;;;17.26;100.00;102114.88;5013039;28;19963;-75
2023/08/20 02:04:54;;;;;;;;;;;;;;;17.29;100.00;102119.19;5021139;28;20064;-74
2023/08/20 02:07:19;;;;;;;;;;;;;;;17.35;100.00;102124.09;5016124;28;19960;-74
2023/08/20 02:09:45;;;;;;;;;;;;;;;17.38;100.00;102123.81;5016237;28;20032;-75
2023/08/20 02:12:10;;;;;;;;;;;;;;;17.48;100.00;102132.03;4995430;28;20579;-74
2023/08/20 02:14:35;;;;;;;;;;;;;;;17.58;100.00;102129.34;5010515;28;19925;-75
2023/08/20 02:17:01;;;;;;;;;;;;;;;17.60;100.00;102141.81;4997002;28;19921;-74
2023/08/20 02:19:26;;;;;;;;;;;;;;;17.63;100.00;102146.13;5013003;28;19921;-74
2023/08/20 02:21:52;;;;;;;;;;;;;;;17.62;100.00;102141.69;5012328;28;19987;-74
2023/08/20 02:24:18;;;;;;;;;;;;;;;17.62;100.00;102141.69;4996376;28;19925;-74
2023/08/20 02:26:43;;;;;;;;;;;;;;;17.56;100.00;102136.78;4997779;28;20020;-75
2023/08/20 02:29:08;;;;;;;;;;;;;;;17.42;100.00;102133.44;4994762;28;20292;-75
2023/08/20 02:31:33;;;;;;;;;;;;;;;17.32;100.00;102133.38;5008612;28;20236;-75
2023/08/20 02:33:58;;;;;;;;;;;;;;;17.30;100.00;102138.06;5011093;28;20371;-74
2023/08/20 02:36:24;;;;;;;;;;;;;;;17.24;100.00;102131.28;5014529;28;20443;-74
2023/08/20 02:38:49;;;;;;;;;;;;;;;17.25;100.00;102137.59;5010760;28;20626;-74
2023/08/20 02:41:14;;;;;;;;;;;;;;;17.27;100.00;102137.44;5008718;28;19927;-74
2023/08/20 02:43:40;;;;;;;;;;;;;;;17.28;100.00;102140.03;4998529;28;20374;-74
2023/08/20 02:46:05;;;;;;;;;;;;;;;17.19;100.00;102136.28;4996837;28;20300;-74
2023/08/20 02:48:31;;;;;;;;;;;;;;;17.15;100.00;102131.22;5014871;28;19940;-74
2023/08/20 02:50:56;;;;;;;;;;;;;;;17.02;100.00;102132.28;4995752;28;19920;-74
2023/08/20 02:53:21;;;;;;;;;;;;;;;17.00;100.00;102130.66;5008997;28;20389;-75
2023/08/20 02:55:47;;;;;;;;;;;;;;;16.89;100.00;102126.13;5013428;28;20312;-74
2023/08/20 02:58:12;;;;;;;;;;;;;;;16.87;100.00;102128.09;5010592;28;19921;-75
2023/08/20 03:00:37;;;;;;;;;;;;;;;16.75;100.00;102120.03;5013478;28;19928;-74
2023/08/20 03:03:05;;;;;;;;;;;;;;;16.64;100.00;102117.34;5015480;28;20252;-74
2023/08/20 03:05:31;;;;;;;;;;;;;;;16.53;100.00;102118.25;5000845;28;20362;-75
2023/08/20 03:07:56;;;;;;;;;;;;;;;16.53;100.00;102122.81;5014070;28;19925;-74
2023/08/20 03:10:21;;;;;;;;;;;;;;;16.53;100.00;102120.97;5014122;28;20008;-75
2023/08/20 03:12:46;;;;;;;;;;;;;;;16.54;100.00;102124.56;5014534;28;19927;-76
2023/08/20 03:15:12;;;;;;;;;;;;;;;16.54;100.00;102119.97;5007765;28;19947;-74
2023/08/20 03:17:37;;;;;;;;;;;;;;;16.49;100.00;102112.22;5015201;28;20441;-74
2023/08/20 03:20:05;;;;;;;;;;;;;;;16.43;100.00;102104.59;5011430;28;20380;-75
2023/08/20 03:22:31;;;;;;;;;;;;;;;16.30;100.00;102102.03;5009766;28;20044;-74
2023/08/20 03:24:56;;;;;;;;;;;;;;;16.25;100.00;102103.41;5010602;28;19982;-74
2023/08/20 03:27:21;;;;;;;;;;;;;;;16.23;100.00;102105.38;4995537;28;19940;-74
2023/08/20 03:29:46;;;;;;;;;;;;;;;16.12;100.00;102099.00;5010959;28;20275;-74
2023/08/20 03:32:12;;;;;;;;;;;;;;;15.96;100.00;102103.94;5010456;28;20228;-74
2023/08/20 03:34:37;;;;;;;;;;;;;;;15.86;100.00;102104.69;4994770;28;20521;-74
2023/08/20 03:37:02;;;;;;;;;;;;;;;15.75;100.00;102097.38;5025358;28;20295;-74
2023/08/20 03:39:28;;;;;;;;;;;;;;;15.69;100.00;102102.44;5006639;28;19921;-75
2023/08/20 03:41:53;;;;;;;;;;;;;;;15.61;100.00;102105.75;5010271;28;20426;-75
2023/08/20 03:44:18;;;;;;;;;;;;;;;15.62;100.00;102106.59;4989954;28;20402;-74
2023/08/20 03:46:43;;;;;;;;;;;;;;;15.62;100.00;102114.72;4992518;28;20858;-74
2023/08/20 03:49:08;;;;;;;;;;;;;;;15.59;100.00;102111.28;5009934;28;20423;-74
2023/08/20 03:51:34;;;;;;;;;;;;;;;15.56;100.00;102113.38;5011444;28;20377;-74
2023/08/20 03:53:59;;;;;;;;;;;;;;;15.45;100.00;102114.22;4991646;28;20284;-74
2023/08/20 03:56:24;;;;;;;;;;;;;;;15.42;100.00;102111.75;5010024;28;20015;-74
2023/08/20 03:58:50;;;;;;;;;;;;;;;15.38;100.00;102115.69;5023045;28;20033;-74
2023/08/20 04:01:15;;;;;;;;;;;;;;;15.43;100.00;102114.31;5022856;28;19972;-74
2023/08/20 04:03:40;;;;;;;;;;;;;;;15.45;100.00;102122.34;4993844;28;20294;-74
2023/08/20 04:06:06;;;;;;;;;;;;;;;15.37;100.00;102122.91;5006131;28;20289;-74
2023/08/20 04:08:31;;;;;;;;;;;;;;;15.36;100.00;102126.59;5013555;28;19925;-74
2023/08/20 04:10:57;;;;;;;;;;;;;;;15.38;100.00;102123.81;5009739;28;19921;-74
2023/08/20 04:13:22;;;;;;;;;;;;;;;15.48;100.00;102132.06;5010716;28;19921;-74
2023/08/20 04:15:47;;;;;;;;;;;;;;;15.36;100.00;102126.59;5021323;28;19961;-74
2023/08/20 04:18:12;;;;;;;;;;;;;;;15.36;100.00;102132.03;5005858;28;19995;-74
2023/08/20 04:20:38;;;;;;;;;;;;;;;15.37;100.00;102133.75;5007104;28;19927;-74
2023/08/20 04:23:03;;;;;;;;;;;;;;;15.38;100.00;102140.03;5004089;28;19921;-74
2023/08/20 04:25:28;;;;;;;;;;;;;;;15.38;100.00;102135.47;5008413;28;20035;-74
2023/08/20 04:27:53;;;;;;;;;;;;;;;15.30;100.00;102133.38;5005895;28;20872;-74
2023/08/20 04:30:19;;;;;;;;;;;;;;;15.21;100.00;102131.41;5008373;28;19941;-74
2023/08/20 04:32:44;;;;;;;;;;;;;;;15.10;100.00;102132.19;5010988;28;20022;-74
2023/08/20 04:35:10;;;;;;;;;;;;;;;15.04;100.00;102139.91;5015842;28;19925;-74
2023/08/20 04:37:35;;;;;;;;;;;;;;;14.94;100.00;102135.25;5012016;28;19982;-74
2023/08/20 04:40:00;;;;;;;;;;;;;;;14.91;100.00;102140.00;5016548;28;20240;-74
2023/08/20 04:42:25;;;;;;;;;;;;;;;14.93;100.00;102144.31;5014363;28;19932;-74
2023/08/20 04:44:51;;;;;;;;;;;;;;;14.97;100.00;102147.66;5011755;28;20012;-74
2023/08/20 04:47:16;;;;;;;;;;;;;;;14.93;100.00;102147.03;5002432;28;20043;-74
2023/08/20 04:49:41;;;;;;;;;;;;;;;14.90;100.00;102143.69;5014382;28;20306;-74
2023/08/20 04:52:07;;;;;;;;;;;;;;;14.92;100.00;102144.44;5015698;28;19963;-74
2023/08/20 04:54:32;;;;;;;;;;;;;;;14.89;100.00;102150.06;4999025;28;20387;-74
2023/08/20 04:56:57;;;;;;;;;;;;;;;14.86;100.00;102145.75;5028836;28;20579;-74
2023/08/20 04:59:23;;;;;;;;;;;;;;;14.79;100.00;102152.59;5011127;28;19921;-74
2023/08/20 05:01:48;;;;;;;;;;;;;;;14.79;100.00;102148.06;5015961;28;19956;-74
2023/08/20 05:04:14;;;;;;;;;;;;;;;14.84;100.00;102153.13;5017548;28;20102;-74
2023/08/20 05:06:39;;;;;;;;;;;;;;;14.80;100.00;102147.09;4993833;28;19925;-74
2023/08/20 05:09:04;;;;;;;;;;;;;;;14.74;100.00;102142.13;4999581;28;19924;-74
2023/08/20 05:11:32;;;;;;;;;;;;;;;14.78;100.00;102140.94;5016624;28;19971;-74
2023/08/20 05:13:57;;;;;;;;;;;;;;;14.85;100.00;102139.47;4998979;28;19925;-74
2023/08/20 05:16:23;;;;;;;;;;;;;;;14.92;100.00;102153.41;5014598;28;19925;-74
2023/08/20 05:18:48;;;;;;;;;;;;;;;15.02;100.00;102160.81;5016324;28;19944;-74
2023/08/20 05:21:13;;;;;;;;;;;;;;;15.11;100.00;102166.38;5011966;28;19925;-74
2023/08/20 05:23:40;;;;;;;;;;;;;;;15.22;100.00;102170.13;5013726;28;19956;-74
2023/08/20 05:26:05;;;;;;;;;;;;;;;15.30;100.00;102171.25;5015238;28;19929;-74
2023/08/20 05:28:30;;;;;;;;;;;;;;;15.39;100.00;102171.53;5014897;28;19921;-73
2023/08/20 05:30:56;;;;;;;;;;;;;;;15.44;100.00;102172.03;5011500;28;19975;-74
2023/08/20 05:33:21;;;;;;;;;;;;;;;15.55;100.00;102177.47;4999313;28;19978;-74
2023/08/20 05:35:47;;;;;;;;;;;;;;;15.58;100.00;102179.09;5009615;28;19922;-74
2023/08/20 05:38:12;;;;;;;;;;;;;;;15.63;100.00;102176.84;5016664;28;19932;-74
2023/08/20 05:40:37;;;;;;;;;;;;;;;15.70;100.00;102185.38;4998205;28;19928;-74
2023/08/20 05:43:02;;;;;;;;;;;;;;;15.83;100.00;102193.41;5017534;28;20011;-74
2023/08/20 05:45:28;;;;;;;;;;;;;;;15.99;100.00;102190.38;5027159;28;19951;-74
2023/08/20 05:47:53;;;;;;;;;;;;;;;16.12;100.00;102188.41;5014749;28;19921;-74
2023/08/20 05:50:18;;;;;;;;;;;;;;;16.26;100.00;102186.44;5012732;28;19967;-74
2023/08/20 05:52:43;;;;;;;;;;;;;;;16.34;100.00;102187.53;5014423;28;19964;-74
2023/08/20 05:55:09;;;;;;;;;;;;;;;16.47;100.00;102194.66;5014411;28;20122;-74
2023/08/20 05:57:36;;;;;;;;;;;;;;;16.61;100.00;102182.66;5005676;28;19968;-74
2023/08/20 06:00:02;;;;;;;;;;;;;;;16.73;100.00;102194.34;5028877;28;19925;-74
2023/08/20 06:02:27;;;;;;;;;;;;;;;16.86;100.00;102183.34;5013739;28;19967;-74
2023/08/20 06:04:52;;;;;;;;;;;;;;;17.01;100.00;102184.81;5015684;28;19925;-74
2023/08/20 06:07:17;;;;;;;;;;;;;;;17.21;100.00;102196.72;5000370;28;19971;-74
2023/08/20 06:09:43;;;;;;;;;;;;;;;17.38;100.00;102187.09;4998164;28;19932;-74
2023/08/20 06:12:08;;;;;;;;;;;;;;;17.56;100.00;102197.41;5013925;28;19921;-74
2023/08/20 06:14:33;;;;;;;;;;;;;;;17.73;100.00;102189.63;5009849;28;19921;-74
2023/08/20 06:16:59;;;;;;;;;;;;;;;17.89;100.00;102197.28;5014746;28;19920;-74
2023/08/20 06:19:24;;;;;;;;;;;;;;;18.02;100.00;102195.22;5012798;28;20040;-74
2023/08/20 06:21:49;;;;;;;;;;;;;;;18.17;100.00;102198.44;5016287;28;20028;-74
2023/08/20 06:24:16;;;;;;;;;;;;;;;18.37;100.00;102187.66;5024541;28;20392;-74
2023/08/20 06:26:43;;;;;;;;;;;;;;;18.50;100.00;102190.97;4998127;28;19932;-74
2023/08/20 06:29:09;;;;;;;;;;;;;;;18.67;100.00;102183.16;5010400;28;19927;-74
2023/08/20 06:31:34;;;;;;;;;;;;;;;18.80;100.00;102175.59;4998634;28;20287;-74
2023/08/20 06:34:00;;;;;;;;;;;;;;;18.95;100.00;102186.94;5015956;28;20450;-74
2023/08/20 06:36:25;;;;;;;;;;;;;;;19.08;100.00;102181.22;5013304;28;20288;-74
2023/08/20 06:38:50;;;;;;;;;;;;;;;19.23;100.00;102178.06;5011434;28;19921;-74
2023/08/20 06:41:15;;;;;;;;;;;;;;;19.31;100.00;102180.91;5009813;28;19916;-74
2023/08/20 06:43:40;;;;;;;;;;;;;;;19.45;100.00;102180.50;5009487;28;19947;-74
2023/08/20 06:46:06;;;;;;;;;;;;;;;19.58;100.00;102191.09;5021655;28;20282;-74
2023/08/20 06:48:31;;;;;;;;;;;;;;;19.70;100.00;102183.59;5010925;28;20291;-74
2023/08/20 06:50:56;;;;;;;;;;;;;;;19.78;100.00;102182.84;4996377;28;19921;-74
2023/08/20 06:53:22;;;;;;;;;;;;;;;19.94;100.00;102185.00;5011236;28;19988;-74
2023/08/20 06:55:47;;;;;;;;;;;;;;;20.00;100.00;102183.53;5007056;28;20276;-76
2023/08/20 06:58:12;;;;;;;;;;;;;;;20.00;100.00;102176.19;5022465;28;20339;-74
2023/08/20 07:00:37;;;;;;;;;;;;;;;20.16;100.00;102171.97;5010264;28;19928;-74
2023/08/20 07:03:03;;;;;;;;;;;;;;;20.15;100.00;102170.25;5009815;28;19925;-75
2023/08/20 07:05:28;;;;;;;;;;;;;;;20.28;100.00;102170.75;5015109;28;19968;-74
2023/08/20 07:07:53;;;;;;;;;;;;;;;20.38;100.00;102173.47;5014397;28;19933;-74
2023/08/20 07:10:19;;;;;;;;;;;;;;;20.49;100.00;102173.22;5012024;28;19944;-74
2023/08/20 07:12:44;;;;;;;;;;;;;;;20.60;100.00;102171.31;5012149;28;19925;-74
2023/08/20 07:15:09;;;;;;;;;;;;;;;20.67;100.00;102176.00;5014939;28;20431;-74
2023/08/20 07:17:43;;;;;;;;;;;;;;;20.74;100.00;102162.59;5056166;27;19982;-76
2023/08/20 07:20:09;;;;;;;;;;;;;;;20.82;100.00;102170.03;5046172;28;20331;-76
2023/08/20 07:22:34;;;;;;;;;;;;;;;20.77;100.00;102172.38;5045760;28;20015;-77
2023/08/20 07:24:59;;;;;;;;;;;;;;;20.90;100.00;102169.28;5046597;28;20015;-76
2023/08/20 07:27:24;;;;;;;;;;;;;;;20.97;100.00;102170.34;5045034;28;19939;-75
2023/08/20 07:29:50;;;;;;;;;;;;;;;21.04;100.00;102167.88;5044134;28;19983;-75
2023/08/20 07:32:15;;;;;;;;;;;;;;;21.11;100.00;102172.53;5043712;28;20047;-76
2023/08/20 07:34:40;;;;;;;;;;;;;;;20.89;100.00;102171.13;5045996;28;19975;-76
2023/08/20 07:37:06;;;;;;;;;;;;;;;20.83;100.00;102177.19;5043765;28;19958;-78
2023/08/20 07:39:31;;;;;;;;;;;;;;;20.68;100.00;102179.56;5045235;28;19925;-77
2023/08/20 07:41:56;;;;;;;;;;;;;;;20.77;100.00;102178.69;5081197;28;20370;-76
2023/08/20 07:44:21;;;;;;;;;;;;;;;20.90;100.00;102181.03;5043548;28;19920;-77
2023/08/20 07:46:47;;;;;;;;;;;;;;;20.95;100.00;102181.44;5041429;28;20109;-78
2023/08/20 07:49:12;;;;;;;;;;;;;;;21.18;100.00;102180.09;5044577;28;19960;-75
2023/08/20 07:51:37;;;;;;;;;;;;;;;21.19;100.00;102187.28;5048183;28;20020;-76
2023/08/20 07:54:03;;;;;;;;;;;;;;;21.28;100.00;102186.31;5054949;28;19931;-77
2023/08/20 07:56:28;;;;;;;;;;;;;;;21.47;100.00;102189.88;5046962;28;19968;-75
2023/08/20 07:58:53;;;;;;;;;;;;;;;21.22;100.00;102185.09;5039736;28;19921;-75
2023/08/20 08:01:18;;;;;;;;;;;;;;;21.40;100.00;102196.00;5043843;28;19933;-77
2023/08/20 08:03:43;;;;;;;;;;;;;;;21.64;100.00;102194.50;5043854;28;19925;-75
2023/08/20 08:06:09;;;;;;;;;;;;;;;21.83;100.00;102207.09;5043813;28;19931;-75
2023/08/20 08:08:34;;;;;;;;;;;;;;;21.99;100.00;102208.19;5041993;28;19920;-75
2023/08/20 08:10:59;;;;;;;;;;;;;;;21.97;100.00;102199.31;5043018;28;19920;-76
2023/08/20 08:13:25;;;;;;;;;;;;;;;21.93;100.00;102206.09;5071383;28;20001;-76
2023/08/20 08:15:50;;;;;;;;;;;;;;;22.10;100.00;102205.19;5038195;28;20012;-75
2023/08/20 08:18:15;;;;;;;;;;;;;;;22.07;100.00;102204.66;5038545;28;19921;-76
2023/08/20 08:20:40;;;;;;;;;;;;;;;22.06;100.00;102203.81;5042858;28;20247;-76
2023/08/20 08:23:06;;;;;;;;;;;;;;;22.21;100.00;102204.06;5042471;28;19975;-76
2023/08/20 08:25:31;;;;;;;;;;;;;;;22.35;100.00;102198.97;5027036;28;20011;-76
2023/08/20 08:27:56;;;;;;;;;;;;;;;22.32;100.00;102208.38;5017243;28;19975;-75
2023/08/20 08:30:22;;;;;;;;;;;;;;;22.49;100.00;102201.13;5046883;28;19935;-74
2023/08/20 08:32:47;;;;;;;;;;;;;;;22.55;100.00;102205.06;5047183;28;19921;-76
2023/08/20 08:35:12;;;;;;;;;;;;;;;22.54;100.00;102211.56;5018778;28;20402;-75
2023/08/20 08:37:37;;;;;;;;;;;;;;;22.69;100.00;102217.25;5059535;28;21067;-74
2023/08/20 08:40:05;;;;;;;;;;;;;;;22.85;100.00;102224.66;5024252;28;19923;-74
2023/08/20 08:42:31;;;;;;;;;;;;;;;22.94;100.00;102217.31;5030908;28;19932;-76
2023/08/20 08:44:56;;;;;;;;;;;;;;;23.07;100.00;102218.53;5066361;28;20163;-74
2023/08/20 08:47:22;;;;;;;;;;;;;;;23.14;100.00;102215.13;5029614;28;19971;-74
2023/08/20 08:49:47;;;;;;;;;;;;;;;23.17;100.00;102215.63;5031047;28;20035;-77
2023/08/20 08:52:12;;;;;;;;;;;;;;;23.20;100.00;102217.16;5048542;28;20161;-76
2023/08/20 08:54:37;;;;;;;;;;;;;;;23.28;100.00;102217.19;5044243;28;20426;-75
2023/08/20 08:57:03;;;;;;;;;;;;;;;23.40;100.00;102216.88;5060098;28;20371;-75
2023/08/20 08:59:28;;;;;;;;;;;;;;;23.57;100.00;102220.47;5037997;28;20330;-73
2023/08/20 09:01:54;;;;;;;;;;;;;;;23.59;100.00;102222.00;5058684;28;19928;-74
2023/08/20 09:04:19;;;;;;;;;;;;;;;23.81;100.00;102219.56;5015911;28;19920;-75
2023/08/20 09:06:47;;;;;;;;;;;;;;;23.86;100.00;102216.28;5035035;28;19963;-77
2023/08/20 09:09:13;;;;;;;;;;;;;;;23.95;100.00;102216.13;5060219;28;21114;-74
2023/08/20 09:11:38;;;;;;;;;;;;;;;24.12;100.00;102221.56;5062659;28;19951;-73
2023/08/20 09:14:03;;;;;;;;;;;;;;;24.15;100.00;102226.72;5032640;28;20438;-75
2023/08/20 09:16:31;;;;;;;;;;;;;;;24.25;100.00;102216.38;5060481;28;20394;-74
2023/08/20 09:19:00;;;;;;;;;;;;;;;24.38;100.00;102218.53;5033945;28;20383;-74
2023/08/20 09:21:32;;;;;;;;;;;;;;;24.43;100.00;102220.78;5044053;28;20011;-75
2023/08/20 09:24:00;;;;;;;;;;;;;;;24.36;100.00;102212.41;5011733;28;20002;-76
2023/08/20 09:26:25;;;;;;;;;;;;;;;24.52;100.00;102221.59;5028966;28;19932;-75
2023/08/20 09:28:50;;;;;;;;;;;;;;;24.65;100.00;102213.59;5027756;28;19921;-74
2023/08/20 09:31:15;;;;;;;;;;;;;;;24.76;84.51;102219.78;5027798;28;20209;-75
2023/08/20 09:33:48;;;;;;;;;;;;;;;24.61;88.07;102220.53;5026283;28;20095;-74
2023/08/20 09:36:13;;;;;;;;;;;;;;;24.63;90.75;102215.69;5028243;28;20188;-74
2023/08/20 09:38:38;;;;;;;;;;;;;;;24.76;78.93;102215.16;5042853;28;20291;-74
2023/08/20 09:41:04;;;;;;;;;;;;;;;24.95;86.52;102215.72;5031129;28;20283;-75
2023/08/20 09:43:30;;;;;;;;;;;;;;;25.08;77.67;102213.19;5055714;28;20323;-75
2023/08/20 09:45:56;;;;;;;;;;;;;;;25.19;83.03;102219.31;5016972;28;19921;-75
2023/08/20 09:48:21;;;;;;;;;;;;;;;25.29;65.31;102225.44;5043552;28;19939;-75
2023/08/20 09:50:47;;;;;;;;;;;;;;;25.23;82.78;102215.16;5029651;28;20438;-75
2023/08/20 09:53:17;;;;;;;;;;;;;;;25.36;70.32;102218.13;5049548;28;20355;-75
2023/08/20 09:55:42;;;;;;;;;;;;;;;25.48;72.57;102215.81;5063687;28;20015;-76
2023/08/20 09:58:07;;;;;;;;;;;;;;;25.67;65.02;102217.19;5026948;28;20389;-75
2023/08/20 10:00:32;;;;;;;;;;;;;;;25.89;70.55;102218.19;5060289;28;19962;-75
2023/08/20 10:02:58;;;;;;;;;;;;;;;26.00;64.08;102222.38;5041994;28;19939;-75
2023/08/20 10:05:23;;;;;;;;;;;;;;;26.10;65.30;102219.31;5026050;28;20302;-77
2023/08/20 10:07:48;;;;;;;;;;;;;;;26.14;63.92;102217.94;5028876;28;19921;-76
2023/08/20 10:10:13;;;;;;;;;;;;;;;26.22;58.00;102219.72;5030363;28;19955;-76
2023/08/20 10:12:39;;;;;;;;;;;;;;;26.32;57.07;102222.19;5059878;28;20007;-76
2023/08/20 10:15:04;;;;;;;;;;;;;;;26.45;51.35;102225.13;5030016;28;19921;-76
2023/08/20 10:17:30;;;;;;;;;;;;;;;26.65;53.24;102225.34;5028176;28;19925;-76
2023/08/20 10:19:57;;;;;;;;;;;;;;;26.59;58.40;102217.00;5039181;28;19964;-73
2023/08/20 10:22:22;;;;;;;;;;;;;;;26.89;57.09;102219.72;5044767;28;19927;-75
2023/08/20 10:24:49;;;;;;;;;;;;;;;26.76;58.23;102221.22;5025553;28;20668;-72
2023/08/20 10:27:23;;;;;;;;;;;;;;;26.45;59.00;102222.38;5008350;28;20439;-74
2023/08/20 10:29:48;;;;;;;;;;;;;;;26.87;54.21;102227.31;5025718;28;20502;-76
2023/08/20 10:32:13;;;;;;;;;;;;;;;27.22;58.32;102222.81;5060530;28;20426;-77
2023/08/20 10:34:39;;;;;;;;;;;;;;;27.58;55.50;102220.19;5024357;28;20389;-75
2023/08/20 10:37:28;;;;;;;;;;;;;;;27.86;52.27;102222.91;5061767;28;19925;-76
2023/08/20 10:39:55;;;;;;;;;;;;;;;27.90;50.36;102217.88;5026289;28;19924;-76
2023/08/20 10:42:22;;;;;;;;;;;;;;;28.01;49.60;102219.19;5007927;28;20421;-75
2023/08/20 10:44:56;;;;;;;;;;;;;;;28.11;45.76;102222.47;5029665;28;19917;-72
2023/08/20 10:47:22;;;;;;;;;;;;;;;28.33;45.65;102214.09;5028259;28;20379;-76
2023/08/20 10:49:49;;;;;;;;;;;;;;;28.72;48.27;102221.69;5025225;28;19921;-76
2023/08/20 10:52:15;;;;;;;;;;;;;;;28.90;47.70;102214.72;5024908;28;19992;-76
2023/08/20 10:54:40;;;;;;;;;;;;;;;29.01;43.36;102213.25;5060891;28;20120;-76
2023/08/20 10:57:05;;;;;;;;;;;;;;;29.23;44.79;102221.38;5027363;28;20036;-74
2023/08/20 10:59:30;;;;;;;;;;;;;;;29.65;45.88;102216.50;5056088;28;19935;-76
2023/08/20 11:01:56;;;;;;;;;;;;;;;29.63;42.94;102224.19;5030572;28;19921;-74
2023/08/20 11:04:22;;;;;;;;;;;;;;;29.67;41.38;102217.13;5026024;28;20449;-74
2023/08/20 11:06:55;;;;;;;;;;;;;;;29.73;43.07;102226.50;5007296;28;19921;-76
2023/08/20 11:09:25;;;;;;;;;;;;;;;30.23;42.21;102223.19;5029310;28;19925;-74
2023/08/20 11:11:51;;;;;;;;;;;;;;;30.66;41.26;102222.63;5061986;28;19921;-77
2023/08/20 11:14:17;;;;;;;;;;;;;;;30.89;41.17;102229.53;5014518;28;19921;-76
2023/08/20 11:16:45;;;;;;;;;;;;;;;31.33;41.03;102229.69;5064660;28;19930;-75
2023/08/20 11:19:11;;;;;;;;;;;;;;;31.62;38.41;102218.97;5062912;28;19927;-74
2023/08/20 11:21:40;;;;;;;;;;;;;;;31.90;39.27;102223.22;5063735;28;20361;-73
2023/08/20 11:24:06;;;;;;;;;;;;;;;32.16;38.64;102218.44;5013911;28;20012;-74
2023/08/20 11:26:31;;;;;;;;;;;;;;;32.24;37.62;102217.25;5063530;28;19924;-73
2023/08/20 11:28:56;;;;;;;;;;;;;;;32.56;39.40;102215.16;5029253;28;19940;-73
2023/08/20 11:31:22;;;;;;;;;;;;;;;32.78;38.77;102209.06;5039941;28;19921;-71
2023/08/20 11:33:48;;;;;;;;;;;;;;;32.77;34.29;102204.59;5025537;28;19948;-72
2023/08/20 11:36:14;;;;;;;;;;;;;;;32.77;35.28;102207.38;5059610;28;20375;-72
2023/08/20 11:38:40;;;;;;;;;;;;;;;32.36;36.44;102207.06;5027751;28;19927;-71
2023/08/20 11:41:05;;;;;;;;;;;;;;;32.60;38.01;102199.72;5062968;28;19917;-72
2023/08/20 11:43:30;;;;;;;;;;;;;;;33.56;35.36;102211.06;5028401;28;19928;-72
2023/08/20 11:45:55;;;;;;;;;;;;;;;33.33;32.91;102205.25;5029927;28;20052;-73
2023/08/20 11:48:21;;;;;;;;;;;;;;;34.13;34.09;102198.44;5028674;28;19923;-71
2023/08/20 11:50:46;;;;;;;;;;;;;;;34.36;32.54;102200.31;5061054;28;19924;-72
2023/08/20 11:53:12;;;;;;;;;;;;;;;34.60;33.65;102203.03;5044687;28;19924;-72
2023/08/20 11:55:38;;;;;;;;;;;;;;;34.96;32.99;102195.38;5059081;28;19968;-72
2023/08/20 11:58:03;;;;;;;;;;;;;;;35.10;32.13;102196.72;5028203;28;19924;-71
2023/08/20 12:00:29;;;;;;;;;;;;;;;35.49;32.42;102193.16;5031883;28;19916;-72
2023/08/20 12:02:57;;;;;;;;;;;;;;;35.09;34.59;102188.63;5043189;28;19963;-73
2023/08/20 12:05:26;;;;;;;;;;;;;;;35.35;31.88;102189.84;5063086;28;19929;-71
2023/08/20 12:07:58;;;;;;;;;;;;;;;35.70;32.49;102177.56;5063841;28;20012;-71
2023/08/20 12:10:23;;;;;;;;;;;;;;;35.64;30.49;102181.38;5063533;28;20003;-72
2023/08/20 12:12:49;;;;;;;;;;;;;;;35.50;32.62;102169.72;5031048;28;19917;-71
2023/08/20 12:15:14;;;;;;;;;;;;;;;35.62;31.20;102169.63;5062169;28;19960;-71
2023/08/20 12:17:40;;;;;;;;;;;;;;;36.53;33.03;102161.84;5067639;28;19956;-71
2023/08/20 12:20:12;;;;;;;;;;;;;;;36.57;30.66;102156.56;5049580;28;19924;-72